createdAt,value
2023-04-18T05:52:41.801Z,100.00
2023-04-18T05:55:09.239Z,100.00
2023-04-18T05:57:36.175Z,100.00
2023-04-18T06:00:08.038Z,100.00
2023-04-18T06:02:39.494Z,100.00
2023-04-18T06:05:08.059Z,100.00
2023-04-18T06:07:35.512Z,100.00
2023-04-18T06:10:02.647Z,100.00
2023-04-18T06:12:30.902Z,100.00
2023-04-18T06:14:57.805Z,100.00
2023-04-18T06:17:24.792Z,100.00
2023-04-18T06:19:51.786Z,100.00
2023-04-18T06:22:18.707Z,100.00
2023-04-18T06:24:46.522Z,100.00
2023-04-18T06:27:27.884Z,100.00
2023-04-18T06:29:57.356Z,100.00
2023-04-18T06:32:24.345Z,100.00
2023-04-18T06:34:53.741Z,100.00
2023-04-18T06:37:21.063Z,100.00
2023-04-18T06:39:48.057Z,100.00
2023-04-18T06:42:15.093Z,100.00
2023-04-18T06:44:45.099Z,100.00
2023-04-18T06:47:12.325Z,100.00
2023-04-18T06:49:39.194Z,100.00
2023-04-18T06:52:06.341Z,100.00
2023-04-18T06:54:33.364Z,100.00
2023-04-18T06:57:00.399Z,100.00
2023-04-18T06:59:27.389Z,100.00
2023-04-18T07:01:54.576Z,100.00
2023-04-18T07:04:21.664Z,100.00
2023-04-18T07:06:48.717Z,100.00
2023-04-18T07:09:15.684Z,100.00
2023-04-18T07:11:42.634Z,100.00
2023-04-18T07:14:12.145Z,100.00
2023-04-18T07:16:39.373Z,100.00
2023-04-18T07:19:06.849Z,100.00
2023-04-18T07:21:33.823Z,100.00
2023-04-18T07:24:00.888Z,100.00
2023-04-18T07:26:27.923Z,100.00
2023-04-18T07:28:54.837Z,100.00
2023-04-18T07:31:21.810Z,100.00
2023-04-18T07:33:48.739Z,99.46
2023-04-18T07:36:15.925Z,98.39
2023-04-18T07:38:42.940Z,95.74
2023-04-18T07:41:09.868Z,93.67
2023-04-18T07:43:36.848Z,94.53
2023-04-18T07:46:03.862Z,94.72
2023-04-18T07:48:31.018Z,93.64
2023-04-18T07:50:58.032Z,94.30
2023-04-18T07:53:24.989Z,93.61
2023-04-18T07:55:52.020Z,89.85
2023-04-18T07:58:18.974Z,89.51
2023-04-18T08:00:45.927Z,88.54
2023-04-18T08:03:13.763Z,87.02
2023-04-18T08:05:42.430Z,86.06
2023-04-18T08:08:11.894Z,86.02
2023-04-18T08:10:39.175Z,84.42
2023-04-18T08:13:06.964Z,84.19
2023-04-18T08:15:34.094Z,84.20
2023-04-18T08:18:01.428Z,83.81
2023-04-18T08:20:28.466Z,84.95
2023-04-18T08:25:25.750Z,82.76
2023-04-18T08:27:52.668Z,82.25
2023-04-18T08:30:19.738Z,77.58
2023-04-18T08:32:46.871Z,74.59
2023-04-18T08:35:13.872Z,73.84
2023-04-18T08:37:41.011Z,73.92
2023-04-18T08:40:08.399Z,72.97
2023-04-18T08:42:38.856Z,71.45
2023-04-18T08:45:10.294Z,71.97
2023-04-18T08:47:37.664Z,71.51
2023-04-18T08:50:05.063Z,70.43
2023-04-18T08:52:32.761Z,68.79
2023-04-18T08:54:59.716Z,69.48
2023-04-18T08:57:31.303Z,68.06
2023-04-18T09:00:00.908Z,63.88
2023-04-18T09:02:43.133Z,63.78
2023-04-18T09:05:21.486Z,62.44
2023-04-18T09:07:50.114Z,60.75
2023-04-18T09:10:34.430Z,60.08
2023-04-18T09:13:05.893Z,58.15
2023-04-18T09:15:32.959Z,60.28
2023-04-18T09:18:03.234Z,57.96
2023-04-18T09:20:42.365Z,58.82
2023-04-18T09:23:16.441Z,57.94
2023-04-18T09:25:47.069Z,58.99
2023-04-18T09:28:33.805Z,67.13
2023-04-18T09:31:13.628Z,70.21
2023-04-18T09:33:44.979Z,72.06
2023-04-18T09:36:27.612Z,74.30
2023-04-18T09:38:56.989Z,74.13
2023-04-18T09:41:24.730Z,73.00
2023-04-18T09:44:14.938Z,72.96
2023-04-18T09:46:44.579Z,73.25
2023-04-18T09:49:14.223Z,74.06
2023-04-18T09:51:44.568Z,75.33
2023-04-18T09:54:17.504Z,77.15
2023-04-18T09:56:46.697Z,76.96
2023-04-18T09:59:18.138Z,77.66
2023-04-18T10:01:48.704Z,78.13
2023-04-18T10:04:17.889Z,78.39
2023-04-18T10:06:46.094Z,79.10
2023-04-18T10:09:16.292Z,78.72
2023-04-18T10:11:44.072Z,79.79
2023-04-18T10:14:14.455Z,77.20
2023-04-18T10:16:45.711Z,79.38
2023-04-18T10:19:26.340Z,76.57
2023-04-18T10:21:58.130Z,77.71
2023-04-18T10:24:53.297Z,78.04
2023-04-18T10:27:49.359Z,78.02
2023-04-18T10:30:17.271Z,78.19
2023-04-18T10:32:46.857Z,77.43
2023-04-18T10:35:13.952Z,76.57
2023-04-18T10:37:51.318Z,75.52
2023-04-18T10:40:33.561Z,76.30
2023-04-18T10:43:01.137Z,73.88
2023-04-18T10:45:31.159Z,73.13
2023-04-18T10:48:24.411Z,72.10
2023-04-18T10:51:17.230Z,71.66
2023-04-18T10:53:53.114Z,71.39
2023-04-18T10:56:20.260Z,71.02
2023-04-18T10:58:52.478Z,71.11
2023-04-18T11:01:32.707Z,68.89
2023-04-18T11:04:11.483Z,68.24
2023-04-18T11:06:49.601Z,67.26
2023-04-18T11:09:16.560Z,64.11
2023-04-18T11:11:44.492Z,64.28
2023-04-18T11:14:11.773Z,61.14
2023-04-18T11:16:40.671Z,62.54
2023-04-18T11:19:26.002Z,59.04
2023-04-18T11:21:53.045Z,61.63
2023-04-18T11:24:24.500Z,61.22
2023-04-18T11:26:56.186Z,62.54
2023-04-18T11:29:23.445Z,60.80
2023-04-18T11:31:56.819Z,58.87
2023-04-18T11:34:30.805Z,58.56
2023-04-18T11:36:58.250Z,58.77
2023-04-18T11:39:25.584Z,62.60
2023-04-18T11:41:52.855Z,61.33
2023-04-18T11:44:27.079Z,61.72
2023-04-18T11:46:54.410Z,60.47
2023-04-18T11:49:32.436Z,61.79
2023-04-18T11:52:01.310Z,62.63
2023-04-18T11:54:45.110Z,61.79
2023-04-18T11:57:26.575Z,61.41
2023-04-18T11:59:57.100Z,63.44
2023-04-18T12:02:27.581Z,64.61
2023-04-18T12:05:00.425Z,65.52
2023-04-18T12:07:36.624Z,66.12
2023-04-18T12:10:05.896Z,67.44
2023-04-18T12:12:32.843Z,70.61
2023-04-18T12:15:06.933Z,75.83
2023-04-18T12:17:34.240Z,79.56
2023-04-18T12:20:02.376Z,81.55
2023-04-18T12:22:38.760Z,83.83
2023-04-18T12:25:31.098Z,85.29
2023-04-18T12:28:01.141Z,86.45
2023-04-18T12:30:37.670Z,88.60
2023-04-18T12:33:05.326Z,88.83
2023-04-18T12:35:32.965Z,90.75
2023-04-18T12:38:01.957Z,90.20
2023-04-18T12:40:30.217Z,92.12
2023-04-18T12:42:57.550Z,86.69
2023-04-18T12:45:24.735Z,86.93
2023-04-18T12:47:53.377Z,87.01
2023-04-18T12:50:23.842Z,86.84
2023-04-18T12:52:55.897Z,88.06
2023-04-18T12:55:23.178Z,86.94
2023-04-18T12:57:54.592Z,83.57
2023-04-18T13:00:23.752Z,84.52
2023-04-18T13:02:51.349Z,84.47
2023-04-18T13:05:20.523Z,84.48
2023-04-18T13:07:49.504Z,85.01
2023-04-18T13:10:22.034Z,84.94
2023-04-18T13:12:50.498Z,82.85
2023-04-18T13:15:17.869Z,82.78
2023-04-18T13:17:44.953Z,83.15
2023-04-18T13:20:15.287Z,82.96
2023-04-18T13:22:43.370Z,82.83
2023-04-18T13:25:11.444Z,84.44
2023-04-18T13:27:41.718Z,83.07
2023-04-18T13:30:11.837Z,82.33
2023-04-18T13:32:41.475Z,82.23
2023-04-18T13:35:13.666Z,81.06
2023-04-18T13:37:40.735Z,81.75
2023-04-18T13:40:08.265Z,81.81
2023-04-18T13:42:37.393Z,81.50
2023-04-18T13:45:04.586Z,81.20
2023-04-18T13:47:31.737Z,81.83
2023-04-18T13:49:58.929Z,82.32
2023-04-18T13:52:26.364Z,82.94
2023-04-18T13:54:53.317Z,82.64
2023-04-18T13:57:20.466Z,81.84
2023-04-18T13:59:47.496Z,82.90
2023-04-18T14:02:14.652Z,82.51
2023-04-18T14:04:41.821Z,81.83
2023-04-18T14:07:09.375Z,81.45
2023-04-18T14:09:36.457Z,81.62
2023-04-18T14:12:03.452Z,81.22
2023-04-18T14:14:30.657Z,81.28
2023-04-18T14:16:57.648Z,81.31
2023-04-18T14:19:25.246Z,81.51
2023-04-18T14:21:52.187Z,81.40
2023-04-18T14:24:19.243Z,82.11
2023-04-18T14:26:46.224Z,80.47
2023-04-18T14:29:14.627Z,80.17
2023-04-18T14:31:41.947Z,79.66
2023-04-18T14:34:09.954Z,79.39
2023-04-18T14:36:37.426Z,79.21
2023-04-18T14:39:05.043Z,79.04
2023-04-18T14:41:32.203Z,78.98
2023-04-18T14:43:59.560Z,79.38
2023-04-18T14:46:28.447Z,79.25
2023-04-18T14:48:55.555Z,79.58
2023-04-18T14:51:23.766Z,79.15
2023-04-18T14:53:50.835Z,79.20
2023-04-18T14:56:21.265Z,79.37
2023-04-18T14:58:48.704Z,80.32
2023-04-18T15:01:17.711Z,79.74
2023-04-18T15:03:45.587Z,80.03
2023-04-18T15:06:12.740Z,81.37
2023-04-18T15:08:39.705Z,81.25
2023-04-18T15:11:08.369Z,80.68
2023-04-18T15:13:35.505Z,80.45
2023-04-18T15:16:03.049Z,79.27
2023-04-18T15:18:30.130Z,79.91
2023-04-18T15:20:59.694Z,80.03
2023-04-18T15:23:26.788Z,81.19
2023-04-18T15:25:53.825Z,82.14
2023-04-18T15:28:20.876Z,81.50
2023-04-18T15:30:47.906Z,82.46
2023-04-18T15:33:15.935Z,81.60
2023-04-18T15:35:42.922Z,81.88
2023-04-18T15:38:09.849Z,81.05
2023-04-18T15:40:36.955Z,80.51
2023-04-18T15:43:04.406Z,80.70
2023-04-18T15:45:31.581Z,81.19
2023-04-18T15:59:00.424Z,81.27
